sensor_id;sensor_type;location;lat;lon;timestamp;P1;durP1;ratioP1;P2;durP2;ratioP2
41115;SDS011;26861;51.824;4.682;2023-03-16T00:02:19;1.38;;;1.05;;
41115;SDS011;26861;51.824;4.682;2023-03-16T00:04:44;1.48;;;1.10;;
41115;SDS011;26861;51.824;4.682;2023-03-16T00:07:11;1.20;;;1.10;;
41115;SDS011;26861;51.824;4.682;2023-03-16T00:09:37;1.52;;;1.25;;
41115;SDS011;26861;51.824;4.682;2023-03-16T00:12:10;1.40;;;1.08;;
41115;SDS011;26861;51.824;4.682;2023-03-16T00:14:39;1.48;;;1.08;;
41115;SDS011;26861;51.824;4.682;2023-03-16T00:17:12;2.23;;;1.43;;
41115;SDS011;26861;51.824;4.682;2023-03-16T00:19:43;1.13;;;1.02;;
41115;SDS011;26861;51.824;4.682;2023-03-16T00:22:13;1.38;;;1.08;;
41115;SDS011;26861;51.824;4.682;2023-03-16T00:24:40;1.13;;;1.02;;
41115;SDS011;26861;51.824;4.682;2023-03-16T00:27:09;1.38;;;1.10;;
41115;SDS011;26861;51.824;4.682;2023-03-16T00:29:39;1.15;;;1.00;;
41115;SDS011;26861;51.824;4.682;2023-03-16T00:32:12;1.30;;;1.10;;
41115;SDS011;26861;51.824;4.682;2023-03-16T00:34:42;2.00;;;1.23;;
41115;SDS011;26861;51.824;4.682;2023-03-16T00:37:08;1.20;;;1.10;;
41115;SDS011;26861;51.824;4.682;2023-03-16T00:39:34;3.85;;;1.33;;
41115;SDS011;26861;51.824;4.682;2023-03-16T00:42:03;1.25;;;1.15;;
41115;SDS011;26861;51.824;4.682;2023-03-16T00:44:28;1.45;;;1.23;;
41115;SDS011;26861;51.824;4.682;2023-03-16T00:46:55;2.28;;;1.20;;
41115;SDS011;26861;51.824;4.682;2023-03-16T00:49:21;1.27;;;1.17;;
41115;SDS011;26861;51.824;4.682;2023-03-16T00:51:46;1.58;;;1.30;;
41115;SDS011;26861;51.824;4.682;2023-03-16T00:54:12;1.25;;;1.15;;
41115;SDS011;26861;51.824;4.682;2023-03-16T00:56:38;1.90;;;1.30;;
41115;SDS011;26861;51.824;4.682;2023-03-16T00:59:03;1.83;;;1.30;;
41115;SDS011;26861;51.824;4.682;2023-03-16T01:01:30;1.45;;;1.30;;
41115;SDS011;26861;51.824;4.682;2023-03-16T01:04:16;1.88;;;1.40;;
41115;SDS011;26861;51.824;4.682;2023-03-16T01:06:43;2.58;;;1.40;;
41115;SDS011;26861;51.824;4.682;2023-03-16T01:09:10;1.25;;;1.15;;
41115;SDS011;26861;51.824;4.682;2023-03-16T01:11:36;1.08;;;0.93;;
41115;SDS011;26861;51.824;4.682;2023-03-16T01:14:03;1.17;;;1.08;;
41115;SDS011;26861;51.824;4.682;2023-03-16T01:16:29;2.33;;;1.20;;
41115;SDS011;26861;51.824;4.682;2023-03-16T01:18:57;1.38;;;0.82;;
41115;SDS011;26861;51.824;4.682;2023-03-16T01:21:23;1.33;;;1.23;;
41115;SDS011;26861;51.824;4.682;2023-03-16T01:23:49;1.58;;;1.33;;
41115;SDS011;26861;51.824;4.682;2023-03-16T01:26:15;1.25;;;1.15;;
41115;SDS011;26861;51.824;4.682;2023-03-16T01:28:42;2.08;;;1.15;;
41115;SDS011;26861;51.824;4.682;2023-03-16T01:31:09;1.50;;;1.23;;
41115;SDS011;26861;51.824;4.682;2023-03-16T01:33:36;1.58;;;1.20;;
41115;SDS011;26861;51.824;4.682;2023-03-16T01:36:07;1.17;;;1.08;;
41115;SDS011;26861;51.824;4.682;2023-03-16T01:38:38;1.48;;;1.38;;
41115;SDS011;26861;51.824;4.682;2023-03-16T01:41:04;2.25;;;1.45;;
41115;SDS011;26861;51.824;4.682;2023-03-16T01:43:32;2.55;;;1.35;;
41115;SDS011;26861;51.824;4.682;2023-03-16T01:53:49;1.10;;;1.00;;
41115;SDS011;26861;51.824;4.682;2023-03-16T01:56:24;1.58;;;1.30;;
41115;SDS011;26861;51.824;4.682;2023-03-16T01:58:54;1.60;;;1.20;;
41115;SDS011;26861;51.824;4.682;2023-03-16T02:01:23;2.40;;;1.10;;
41115;SDS011;26861;51.824;4.682;2023-03-16T02:06:20;2.75;;;1.05;;
41115;SDS011;26861;51.824;4.682;2023-03-16T02:08:47;1.45;;;0.80;;
41115;SDS011;26861;51.824;4.682;2023-03-16T02:11:14;1.05;;;0.80;;
41115;SDS011;26861;51.824;4.682;2023-03-16T02:13:44;1.60;;;1.10;;
41115;SDS011;26861;51.824;4.682;2023-03-16T02:16:10;1.20;;;0.95;;
41115;SDS011;26861;51.824;4.682;2023-03-16T02:18:37;2.35;;;1.20;;
41115;SDS011;26861;51.824;4.682;2023-03-16T02:23:49;1.40;;;0.98;;
41115;SDS011;26861;51.824;4.682;2023-03-16T02:31:47;1.55;;;1.13;;
41115;SDS011;26861;51.824;4.682;2023-03-16T02:34:13;2.00;;;1.30;;
41115;SDS011;26861;51.824;4.682;2023-03-16T02:36:41;1.55;;;1.10;;
41115;SDS011;26861;51.824;4.682;2023-03-16T02:39:09;2.13;;;1.08;;
41115;SDS011;26861;51.824;4.682;2023-03-16T02:41:35;1.25;;;1.00;;
41115;SDS011;26861;51.824;4.682;2023-03-16T02:44:03;2.50;;;1.42;;
41115;SDS011;26861;51.824;4.682;2023-03-16T02:46:38;1.20;;;0.82;;
41115;SDS011;26861;51.824;4.682;2023-03-16T02:51:50;2.03;;;0.93;;
41115;SDS011;26861;51.824;4.682;2023-03-16T02:54:16;1.95;;;1.15;;
41115;SDS011;26861;51.824;4.682;2023-03-16T02:56:42;1.45;;;0.90;;
41115;SDS011;26861;51.824;4.682;2023-03-16T02:59:07;2.00;;;1.05;;
41115;SDS011;26861;51.824;4.682;2023-03-16T03:01:34;1.25;;;1.10;;
41115;SDS011;26861;51.824;4.682;2023-03-16T03:04:00;1.95;;;1.13;;
41115;SDS011;26861;51.824;4.682;2023-03-16T03:06:27;1.70;;;1.17;;
41115;SDS011;26861;51.824;4.682;2023-03-16T03:08:54;1.85;;;1.10;;
41115;SDS011;26861;51.824;4.682;2023-03-16T03:11:20;1.25;;;0.95;;
41115;SDS011;26861;51.824;4.682;2023-03-16T03:13:46;1.17;;;1.08;;
41115;SDS011;26861;51.824;4.682;2023-03-16T03:16:11;1.58;;;1.08;;
41115;SDS011;26861;51.824;4.682;2023-03-16T03:18:37;1.02;;;0.90;;
41115;SDS011;26861;51.824;4.682;2023-03-16T03:21:03;1.20;;;0.90;;
41115;SDS011;26861;51.824;4.682;2023-03-16T03:23:29;1.65;;;1.02;;
41115;SDS011;26861;51.824;4.682;2023-03-16T03:25:56;0.90;;;0.73;;
41115;SDS011;26861;51.824;4.682;2023-03-16T03:28:23;1.80;;;1.35;;
41115;SDS011;26861;51.824;4.682;2023-03-16T03:30:48;2.55;;;1.10;;
41115;SDS011;26861;51.824;4.682;2023-03-16T03:33:15;1.80;;;0.90;;
41115;SDS011;26861;51.824;4.682;2023-03-16T03:35:41;2.25;;;1.00;;
41115;SDS011;26861;51.824;4.682;2023-03-16T03:38:06;1.33;;;0.98;;
41115;SDS011;26861;51.824;4.682;2023-03-16T03:40:32;1.27;;;0.93;;
41115;SDS011;26861;51.824;4.682;2023-03-16T03:42:58;1.25;;;0.90;;
41115;SDS011;26861;51.824;4.682;2023-03-16T03:45:24;1.23;;;1.10;;
41115;SDS011;26861;51.824;4.682;2023-03-16T03:47:50;1.30;;;0.80;;
41115;SDS011;26861;51.824;4.682;2023-03-16T03:50:16;2.28;;;1.08;;
41115;SDS011;26861;51.824;4.682;2023-03-16T03:52:42;1.95;;;0.95;;
41115;SDS011;26861;51.824;4.682;2023-03-16T03:55:07;4.43;;;0.90;;
41115;SDS011;26861;51.824;4.682;2023-03-16T03:57:34;2.03;;;0.90;;
41115;SDS011;26861;51.824;4.682;2023-03-16T04:00:00;2.08;;;0.98;;
41115;SDS011;26861;51.824;4.682;2023-03-16T04:02:25;1.42;;;0.95;;
41115;SDS011;26861;51.824;4.682;2023-03-16T04:04:51;1.10;;;0.90;;
41115;SDS011;26861;51.824;4.682;2023-03-16T04:07:17;1.35;;;0.90;;
41115;SDS011;26861;51.824;4.682;2023-03-16T04:09:42;1.30;;;0.70;;
41115;SDS011;26861;51.824;4.682;2023-03-16T04:12:09;1.90;;;1.05;;
41115;SDS011;26861;51.824;4.682;2023-03-16T04:14:35;1.42;;;0.93;;
41115;SDS011;26861;51.824;4.682;2023-03-16T04:17:00;1.80;;;0.80;;
41115;SDS011;26861;51.824;4.682;2023-03-16T04:19:26;1.17;;;0.85;;
41115;SDS011;26861;51.824;4.682;2023-03-16T04:21:52;1.13;;;0.90;;
41115;SDS011;26861;51.824;4.682;2023-03-16T04:24:18;2.38;;;1.20;;
41115;SDS011;26861;51.824;4.682;2023-03-16T04:26:43;1.02;;;0.73;;
41115;SDS011;26861;51.824;4.682;2023-03-16T04:29:10;1.30;;;0.95;;
41115;SDS011;26861;51.824;4.682;2023-03-16T04:31:38;1.58;;;0.93;;
41115;SDS011;26861;51.824;4.682;2023-03-16T04:34:04;1.23;;;0.70;;
41115;SDS011;26861;51.824;4.682;2023-03-16T04:36:30;1.85;;;0.73;;
41115;SDS011;26861;51.824;4.682;2023-03-16T04:38:57;2.15;;;0.70;;
41115;SDS011;26861;51.824;4.682;2023-03-16T04:41:22;1.23;;;0.80;;
41115;SDS011;26861;51.824;4.682;2023-03-16T04:43:48;2.15;;;0.75;;
41115;SDS011;26861;51.824;4.682;2023-03-16T04:46:13;1.25;;;0.50;;
41115;SDS011;26861;51.824;4.682;2023-03-16T04:48:39;1.20;;;0.77;;
41115;SDS011;26861;51.824;4.682;2023-03-16T04:51:05;1.38;;;0.80;;
41115;SDS011;26861;51.824;4.682;2023-03-16T04:53:31;1.88;;;0.90;;
41115;SDS011;26861;51.824;4.682;2023-03-16T04:55:57;1.73;;;0.90;;
41115;SDS011;26861;51.824;4.682;2023-03-16T04:58:23;3.13;;;1.23;;
41115;SDS011;26861;51.824;4.682;2023-03-16T05:00:52;0.77;;;0.70;;
41115;SDS011;26861;51.824;4.682;2023-03-16T05:03:19;1.13;;;0.55;;
41115;SDS011;26861;51.824;4.682;2023-03-16T05:05:45;1.52;;;0.80;;
41115;SDS011;26861;51.824;4.682;2023-03-16T05:08:12;1.88;;;0.80;;
41115;SDS011;26861;51.824;4.682;2023-03-16T05:10:37;1.00;;;0.70;;
41115;SDS011;26861;51.824;4.682;2023-03-16T05:13:03;1.27;;;0.70;;
41115;SDS011;26861;51.824;4.682;2023-03-16T05:15:30;1.02;;;0.80;;
41115;SDS011;26861;51.824;4.682;2023-03-16T05:17:55;1.15;;;0.82;;
41115;SDS011;26861;51.824;4.682;2023-03-16T05:20:21;1.65;;;1.20;;
41115;SDS011;26861;51.824;4.682;2023-03-16T05:22:48;1.95;;;1.10;;
41115;SDS011;26861;51.824;4.682;2023-03-16T05:25:15;1.55;;;1.45;;
41115;SDS011;26861;51.824;4.682;2023-03-16T05:27:45;2.45;;;2.20;;
41115;SDS011;26861;51.824;4.682;2023-03-16T05:30:12;3.20;;;3.00;;
41115;SDS011;26861;51.824;4.682;2023-03-16T05:32:40;4.18;;;3.88;;
41115;SDS011;26861;51.824;4.682;2023-03-16T05:35:06;5.53;;;5.13;;
41115;SDS011;26861;51.824;4.682;2023-03-16T05:37:34;7.78;;;7.15;;
41115;SDS011;26861;51.824;4.682;2023-03-16T05:40:02;8.90;;;8.20;;
41115;SDS011;26861;51.824;4.682;2023-03-16T05:42:38;11.35;;;10.45;;
41115;SDS011;26861;51.824;4.682;2023-03-16T05:45:04;12.45;;;11.55;;
41115;SDS011;26861;51.824;4.682;2023-03-16T05:47:30;14.88;;;13.68;;
41115;SDS011;26861;51.824;4.682;2023-03-16T05:49:56;15.73;;;14.63;;
41115;SDS011;26861;51.824;4.682;2023-03-16T05:52:21;18.13;;;16.73;;
41115;SDS011;26861;51.824;4.682;2023-03-16T05:54:49;18.15;;;16.65;;
41115;SDS011;26861;51.824;4.682;2023-03-16T05:57:14;20.15;;;18.65;;
41115;SDS011;26861;51.824;4.682;2023-03-16T05:59:40;23.30;;;21.40;;
41115;SDS011;26861;51.824;4.682;2023-03-16T06:02:06;23.20;;;21.20;;
41115;SDS011;26861;51.824;4.682;2023-03-16T06:04:34;22.70;;;20.92;;
41115;SDS011;26861;51.824;4.682;2023-03-16T06:07:01;22.20;;;20.40;;
41115;SDS011;26861;51.824;4.682;2023-03-16T06:09:27;21.48;;;19.75;;
41115;SDS011;26861;51.824;4.682;2023-03-16T06:11:53;21.45;;;19.75;;
41115;SDS011;26861;51.824;4.682;2023-03-16T06:14:19;20.45;;;18.77;;
41115;SDS011;26861;51.824;4.682;2023-03-16T06:16:45;20.85;;;19.15;;
41115;SDS011;26861;51.824;4.682;2023-03-16T06:19:11;19.58;;;17.90;;
41115;SDS011;26861;51.824;4.682;2023-03-16T06:21:37;18.33;;;16.88;;
41115;SDS011;26861;51.824;4.682;2023-03-16T06:24:03;17.30;;;16.00;;
41115;SDS011;26861;51.824;4.682;2023-03-16T06:26:32;17.98;;;16.67;;
41115;SDS011;26861;51.824;4.682;2023-03-16T06:28:57;16.67;;;15.25;;
41115;SDS011;26861;51.824;4.682;2023-03-16T06:31:23;14.88;;;13.73;;
41115;SDS011;26861;51.824;4.682;2023-03-16T06:33:50;15.10;;;13.80;;
41115;SDS011;26861;51.824;4.682;2023-03-16T06:36:16;15.07;;;13.88;;
41115;SDS011;26861;51.824;4.682;2023-03-16T06:38:42;12.85;;;11.90;;
41115;SDS011;26861;51.824;4.682;2023-03-16T06:41:08;12.30;;;11.30;;
41115;SDS011;26861;51.824;4.682;2023-03-16T06:43:34;11.80;;;10.70;;
41115;SDS011;26861;51.824;4.682;2023-03-16T06:46:00;12.50;;;11.50;;
41115;SDS011;26861;51.824;4.682;2023-03-16T06:48:27;10.60;;;9.70;;
41115;SDS011;26861;51.824;4.682;2023-03-16T06:50:54;10.10;;;9.40;;
41115;SDS011;26861;51.824;4.682;2023-03-16T06:53:20;9.70;;;9.00;;
41115;SDS011;26861;51.824;4.682;2023-03-16T06:55:46;8.85;;;8.15;;
41115;SDS011;26861;51.824;4.682;2023-03-16T06:58:13;8.73;;;8.13;;
41115;SDS011;26861;51.824;4.682;2023-03-16T07:00:39;8.02;;;7.35;;
41115;SDS011;26861;51.824;4.682;2023-03-16T07:03:04;8.02;;;7.32;;
41115;SDS011;26861;51.824;4.682;2023-03-16T07:05:31;7.70;;;7.00;;
41115;SDS011;26861;51.824;4.682;2023-03-16T07:07:57;6.90;;;6.20;;
41115;SDS011;26861;51.824;4.682;2023-03-16T07:10:23;6.68;;;6.07;;
41115;SDS011;26861;51.824;4.682;2023-03-16T07:12:49;7.57;;;5.85;;
41115;SDS011;26861;51.824;4.682;2023-03-16T07:15:16;6.03;;;5.53;;
41115;SDS011;26861;51.824;4.682;2023-03-16T07:17:42;5.38;;;4.88;;
41115;SDS011;26861;51.824;4.682;2023-03-16T07:20:09;4.80;;;4.40;;
41115;SDS011;26861;51.824;4.682;2023-03-16T07:22:37;5.13;;;4.13;;
41115;SDS011;26861;51.824;4.682;2023-03-16T07:25:04;4.38;;;3.80;;
41115;SDS011;26861;51.824;4.682;2023-03-16T07:27:31;5.00;;;4.03;;
41115;SDS011;26861;51.824;4.682;2023-03-16T07:29:57;3.92;;;3.53;;
41115;SDS011;26861;51.824;4.682;2023-03-16T07:32:24;3.47;;;3.17;;
41115;SDS011;26861;51.824;4.682;2023-03-16T07:34:49;2.97;;;2.78;;
41115;SDS011;26861;51.824;4.682;2023-03-16T07:37:15;2.90;;;2.60;;
41115;SDS011;26861;51.824;4.682;2023-03-16T07:39:41;3.55;;;2.58;;
41115;SDS011;26861;51.824;4.682;2023-03-16T07:42:08;3.25;;;2.08;;
41115;SDS011;26861;51.824;4.682;2023-03-16T07:44:34;2.22;;;2.03;;
41115;SDS011;26861;51.824;4.682;2023-03-16T07:47:00;3.50;;;2.00;;
41115;SDS011;26861;51.824;4.682;2023-03-16T07:49:26;1.90;;;1.80;;
41115;SDS011;26861;51.824;4.682;2023-03-16T07:51:52;2.38;;;2.08;;
41115;SDS011;26861;51.824;4.682;2023-03-16T07:54:18;4.03;;;1.63;;
41115;SDS011;26861;51.824;4.682;2023-03-16T07:56:44;4.22;;;1.83;;
41115;SDS011;26861;51.824;4.682;2023-03-16T07:59:10;1.85;;;1.60;;
41115;SDS011;26861;51.824;4.682;2023-03-16T08:01:36;2.20;;;1.50;;
41115;SDS011;26861;51.824;4.682;2023-03-16T08:04:02;1.75;;;1.33;;
41115;SDS011;26861;51.824;4.682;2023-03-16T08:06:28;1.55;;;1.20;;
41115;SDS011;26861;51.824;4.682;2023-03-16T08:08:54;3.17;;;1.40;;
41115;SDS011;26861;51.824;4.682;2023-03-16T08:11:20;2.65;;;1.30;;
41115;SDS011;26861;51.824;4.682;2023-03-16T08:13:50;1.50;;;1.25;;
41115;SDS011;26861;51.824;4.682;2023-03-16T08:16:21;1.95;;;1.35;;
41115;SDS011;26861;51.824;4.682;2023-03-16T08:18:48;1.35;;;0.98;;
41115;SDS011;26861;51.824;4.682;2023-03-16T08:21:15;2.13;;;1.15;;
41115;SDS011;26861;51.824;4.682;2023-03-16T08:23:42;1.60;;;1.05;;
41115;SDS011;26861;51.824;4.682;2023-03-16T08:26:15;3.33;;;1.08;;
41115;SDS011;26861;51.824;4.682;2023-03-16T08:28:41;2.90;;;1.10;;
41115;SDS011;26861;51.824;4.682;2023-03-16T08:31:12;0.77;;;0.77;;
41115;SDS011;26861;51.824;4.682;2023-03-16T08:33:39;0.93;;;0.70;;
41115;SDS011;26861;51.824;4.682;2023-03-16T08:36:07;0.70;;;0.70;;
41115;SDS011;26861;51.824;4.682;2023-03-16T08:38:36;1.70;;;0.77;;
41115;SDS011;26861;51.824;4.682;2023-03-16T08:41:04;1.52;;;0.70;;
41115;SDS011;26861;51.824;4.682;2023-03-16T08:43:30;1.33;;;0.90;;
41115;SDS011;26861;51.824;4.682;2023-03-16T08:45:57;1.25;;;0.63;;
41115;SDS011;26861;51.824;4.682;2023-03-16T08:48:24;0.57;;;0.50;;
41115;SDS011;26861;51.824;4.682;2023-03-16T08:50:50;1.15;;;0.80;;
41115;SDS011;26861;51.824;4.682;2023-03-16T08:53:18;1.45;;;0.80;;
41115;SDS011;26861;51.824;4.682;2023-03-16T08:55:45;1.65;;;0.80;;
41115;SDS011;26861;51.824;4.682;2023-03-16T08:58:12;1.98;;;0.63;;
41115;SDS011;26861;51.824;4.682;2023-03-16T09:00:38;1.58;;;0.82;;
41115;SDS011;26861;51.824;4.682;2023-03-16T09:03:05;1.92;;;0.80;;
41115;SDS011;26861;51.824;4.682;2023-03-16T09:05:32;1.15;;;1.00;;
41115;SDS011;26861;51.824;4.682;2023-03-16T09:07:58;1.25;;;0.63;;
41115;SDS011;26861;51.824;4.682;2023-03-16T09:10:25;1.73;;;0.65;;
41115;SDS011;26861;51.824;4.682;2023-03-16T09:12:51;1.13;;;0.60;;
41115;SDS011;26861;51.824;4.682;2023-03-16T09:15:18;1.85;;;0.73;;
41115;SDS011;26861;51.824;4.682;2023-03-16T09:17:45;1.33;;;0.68;;
41115;SDS011;26861;51.824;4.682;2023-03-16T09:20:12;1.27;;;0.70;;
41115;SDS011;26861;51.824;4.682;2023-03-16T09:22:40;4.65;;;0.80;;
41115;SDS011;26861;51.824;4.682;2023-03-16T09:25:06;1.63;;;0.82;;
41115;SDS011;26861;51.824;4.682;2023-03-16T09:27:34;1.95;;;0.77;;
41115;SDS011;26861;51.824;4.682;2023-03-16T09:30:04;2.45;;;0.70;;
41115;SDS011;26861;51.824;4.682;2023-03-16T09:32:31;2.22;;;0.70;;
41115;SDS011;26861;51.824;4.682;2023-03-16T09:34:57;1.38;;;0.68;;
41115;SDS011;26861;51.824;4.682;2023-03-16T09:37:23;3.40;;;0.90;;
41115;SDS011;26861;51.824;4.682;2023-03-16T09:39:50;1.85;;;0.80;;
41115;SDS011;26861;51.824;4.682;2023-03-16T09:42:37;0.82;;;0.82;;
41115;SDS011;26861;51.824;4.682;2023-03-16T09:45:32;1.02;;;0.57;;
41115;SDS011;26861;51.824;4.682;2023-03-16T09:48:07;0.98;;;0.60;;
41115;SDS011;26861;51.824;4.682;2023-03-16T09:50:36;1.63;;;0.73;;
41115;SDS011;26861;51.824;4.682;2023-03-16T09:53:23;1.95;;;0.57;;
41115;SDS011;26861;51.824;4.682;2023-03-16T09:56:03;1.23;;;0.75;;
41115;SDS011;26861;51.824;4.682;2023-03-16T09:58:39;1.50;;;0.65;;
41115;SDS011;26861;51.824;4.682;2023-03-16T10:01:12;0.70;;;0.60;;
41115;SDS011;26861;51.824;4.682;2023-03-16T10:06:32;1.38;;;0.68;;
41115;SDS011;26861;51.824;4.682;2023-03-16T10:11:52;2.78;;;0.63;;
41115;SDS011;26861;51.824;4.682;2023-03-16T10:14:33;0.80;;;0.80;;
41115;SDS011;26861;51.824;4.682;2023-03-16T10:17:14;2.13;;;0.80;;
41115;SDS011;26861;51.824;4.682;2023-03-16T10:20:04;1.20;;;0.60;;
41115;SDS011;26861;51.824;4.682;2023-03-16T10:22:38;1.98;;;0.60;;
41115;SDS011;26861;51.824;4.682;2023-03-16T10:27:46;2.42;;;0.60;;
41115;SDS011;26861;51.824;4.682;2023-03-16T10:32:49;1.33;;;0.65;;
41115;SDS011;26861;51.824;4.682;2023-03-16T10:38:38;1.35;;;0.70;;
41115;SDS011;26861;51.824;4.682;2023-03-16T10:41:53;1.48;;;0.30;;
41115;SDS011;26861;51.824;4.682;2023-03-16T10:47:35;1.20;;;0.68;;
41115;SDS011;26861;51.824;4.682;2023-03-16T10:49:41;0.93;;;0.52;;
41115;SDS011;26861;51.824;4.682;2023-03-16T10:52:15;2.08;;;0.68;;
41115;SDS011;26861;51.824;4.682;2023-03-16T10:55:06;2.25;;;0.85;;
41115;SDS011;26861;51.824;4.682;2023-03-16T10:57:56;1.10;;;0.68;;
41115;SDS011;26861;51.824;4.682;2023-03-16T11:00:27;2.88;;;0.60;;
41115;SDS011;26861;51.824;4.682;2023-03-16T11:02:57;1.40;;;0.60;;
41115;SDS011;26861;51.824;4.682;2023-03-16T11:10:37;1.02;;;0.70;;
41115;SDS011;26861;51.824;4.682;2023-03-16T11:18:29;1.10;;;0.60;;
41115;SDS011;26861;51.824;4.682;2023-03-16T11:21:22;1.75;;;0.52;;
41115;SDS011;26861;51.824;4.682;2023-03-16T11:23:55;1.40;;;0.70;;
41115;SDS011;26861;51.824;4.682;2023-03-16T11:26:23;2.17;;;0.50;;
41115;SDS011;26861;51.824;4.682;2023-03-16T11:31:50;1.20;;;0.50;;
41115;SDS011;26861;51.824;4.682;2023-03-16T11:34:18;1.83;;;0.63;;
41115;SDS011;26861;51.824;4.682;2023-03-16T11:36:48;1.55;;;0.70;;
41115;SDS011;26861;51.824;4.682;2023-03-16T11:39:36;3.70;;;0.70;;
41115;SDS011;26861;51.824;4.682;2023-03-16T11:42:28;2.20;;;0.60;;
41115;SDS011;26861;51.824;4.682;2023-03-16T11:56:33;2.30;;;0.50;;
41115;SDS011;26861;51.824;4.682;2023-03-16T12:16:18;3.33;;;0.70;;
41115;SDS011;26861;51.824;4.682;2023-03-16T12:19:26;2.88;;;0.82;;
41115;SDS011;26861;51.824;4.682;2023-03-16T12:21:48;3.22;;;0.43;;
41115;SDS011;26861;51.824;4.682;2023-03-16T12:24:26;2.13;;;0.60;;
41115;SDS011;26861;51.824;4.682;2023-03-16T12:26:56;1.88;;;0.80;;
41115;SDS011;26861;51.824;4.682;2023-03-16T12:32:12;2.30;;;0.73;;
41115;SDS011;26861;51.824;4.682;2023-03-16T12:34:58;1.58;;;0.80;;
41115;SDS011;26861;51.824;4.682;2023-03-16T12:40:21;3.00;;;0.90;;
41115;SDS011;26861;51.824;4.682;2023-03-16T12:48:24;1.50;;;0.52;;
41115;SDS011;26861;51.824;4.682;2023-03-16T12:50:57;2.28;;;0.70;;
41115;SDS011;26861;51.824;4.682;2023-03-16T12:57:03;0.75;;;0.50;;
41115;SDS011;26861;51.824;4.682;2023-03-16T12:59:15;1.55;;;1.08;;
41115;SDS011;26861;51.824;4.682;2023-03-16T13:01:50;1.35;;;0.73;;
41115;SDS011;26861;51.824;4.682;2023-03-16T13:04:33;1.13;;;0.50;;
41115;SDS011;26861;51.824;4.682;2023-03-16T13:07:08;1.10;;;0.70;;
41115;SDS011;26861;51.824;4.682;2023-03-16T13:09:43;1.85;;;0.60;;
41115;SDS011;26861;51.824;4.682;2023-03-16T13:17:46;1.50;;;0.80;;
41115;SDS011;26861;51.824;4.682;2023-03-16T13:23:55;0.95;;;0.50;;
41115;SDS011;26861;51.824;4.682;2023-03-16T13:26:15;1.63;;;0.60;;
41115;SDS011;26861;51.824;4.682;2023-03-16T13:28:43;1.33;;;0.40;;
41115;SDS011;26861;51.824;4.682;2023-03-16T13:31:36;2.28;;;0.60;;
41115;SDS011;26861;51.824;4.682;2023-03-16T13:34:02;3.58;;;0.63;;
41115;SDS011;26861;51.824;4.682;2023-03-16T13:36:31;1.25;;;0.43;;
41115;SDS011;26861;51.824;4.682;2023-03-16T13:39:16;1.02;;;0.68;;
41115;SDS011;26861;51.824;4.682;2023-03-16T13:41:57;1.58;;;0.82;;
41115;SDS011;26861;51.824;4.682;2023-03-16T13:44:27;1.67;;;0.80;;
41115;SDS011;26861;51.824;4.682;2023-03-16T13:46:54;2.70;;;0.60;;
41115;SDS011;26861;51.824;4.682;2023-03-16T13:49:20;2.92;;;0.68;;
41115;SDS011;26861;51.824;4.682;2023-03-16T13:51:47;1.15;;;0.82;;
41115;SDS011;26861;51.824;4.682;2023-03-16T13:56:51;1.25;;;0.63;;
41115;SDS011;26861;51.824;4.682;2023-03-16T13:59:18;0.50;;;0.50;;
41115;SDS011;26861;51.824;4.682;2023-03-16T14:01:45;1.35;;;0.60;;
41115;SDS011;26861;51.824;4.682;2023-03-16T14:04:13;2.25;;;0.60;;
41115;SDS011;26861;51.824;4.682;2023-03-16T14:07:02;0.93;;;0.70;;
41115;SDS011;26861;51.824;4.682;2023-03-16T14:09:29;1.35;;;0.50;;
41115;SDS011;26861;51.824;4.682;2023-03-16T14:11:58;0.70;;;0.30;;
41115;SDS011;26861;51.824;4.682;2023-03-16T14:19:34;0.90;;;0.57;;
41115;SDS011;26861;51.824;4.682;2023-03-16T14:22:14;2.08;;;0.52;;
41115;SDS011;26861;51.824;4.682;2023-03-16T14:24:51;2.70;;;0.75;;
41115;SDS011;26861;51.824;4.682;2023-03-16T14:29:45;2.03;;;0.65;;
41115;SDS011;26861;51.824;4.682;2023-03-16T14:32:25;0.63;;;0.50;;
41115;SDS011;26861;51.824;4.682;2023-03-16T14:35:08;1.00;;;0.40;;
41115;SDS011;26861;51.824;4.682;2023-03-16T14:37:40;1.73;;;0.82;;
41115;SDS011;26861;51.824;4.682;2023-03-16T14:40:07;1.40;;;0.60;;
41115;SDS011;26861;51.824;4.682;2023-03-16T14:42:54;1.15;;;0.50;;
41115;SDS011;26861;51.824;4.682;2023-03-16T14:45:25;0.65;;;0.50;;
41115;SDS011;26861;51.824;4.682;2023-03-16T14:48:00;0.90;;;0.45;;
41115;SDS011;26861;51.824;4.682;2023-03-16T14:50:31;1.05;;;0.60;;
41115;SDS011;26861;51.824;4.682;2023-03-16T14:52:59;1.92;;;0.68;;
41115;SDS011;26861;51.824;4.682;2023-03-16T14:55:26;0.82;;;0.47;;
41115;SDS011;26861;51.824;4.682;2023-03-16T14:57:52;6.28;;;0.63;;
41115;SDS011;26861;51.824;4.682;2023-03-16T15:00:19;1.58;;;0.60;;
41115;SDS011;26861;51.824;4.682;2023-03-16T15:02:53;2.45;;;0.45;;
41115;SDS011;26861;51.824;4.682;2023-03-16T15:05:27;2.30;;;0.70;;
41115;SDS011;26861;51.824;4.682;2023-03-16T15:07:56;2.05;;;0.85;;
41115;SDS011;26861;51.824;4.682;2023-03-16T15:10:26;1.45;;;0.50;;
41115;SDS011;26861;51.824;4.682;2023-03-16T15:12:53;2.55;;;0.75;;
41115;SDS011;26861;51.824;4.682;2023-03-16T15:15:29;2.30;;;0.70;;
41115;SDS011;26861;51.824;4.682;2023-03-16T15:17:56;0.90;;;0.70;;
41115;SDS011;26861;51.824;4.682;2023-03-16T15:20:24;1.05;;;0.50;;
41115;SDS011;26861;51.824;4.682;2023-03-16T15:22:55;0.65;;;0.40;;
41115;SDS011;26861;51.824;4.682;2023-03-16T15:27:54;1.63;;;0.60;;
41115;SDS011;26861;51.824;4.682;2023-03-16T15:30:22;1.67;;;0.80;;
41115;SDS011;26861;51.824;4.682;2023-03-16T15:32:50;1.45;;;0.70;;
41115;SDS011;26861;51.824;4.682;2023-03-16T15:35:17;1.17;;;0.60;;
41115;SDS011;26861;51.824;4.682;2023-03-16T15:37:43;0.98;;;0.47;;
41115;SDS011;26861;51.824;4.682;2023-03-16T15:40:19;1.10;;;0.70;;
41115;SDS011;26861;51.824;4.682;2023-03-16T15:42:50;0.95;;;0.52;;
41115;SDS011;26861;51.824;4.682;2023-03-16T15:45:18;2.55;;;0.80;;
41115;SDS011;26861;51.824;4.682;2023-03-16T15:47:47;1.53;;;0.90;;
41115;SDS011;26861;51.824;4.682;2023-03-16T15:50:14;2.25;;;0.70;;
41115;SDS011;26861;51.824;4.682;2023-03-16T15:52:43;2.03;;;0.55;;
41115;SDS011;26861;51.824;4.682;2023-03-16T15:55:18;0.95;;;0.50;;
41115;SDS011;26861;51.824;4.682;2023-03-16T15:57:48;0.75;;;0.38;;
41115;SDS011;26861;51.824;4.682;2023-03-16T16:00:28;0.90;;;0.52;;
41115;SDS011;26861;51.824;4.682;2023-03-16T16:02:57;1.33;;;0.95;;
41115;SDS011;26861;51.824;4.682;2023-03-16T16:05:23;1.75;;;0.63;;
41115;SDS011;26861;51.824;4.682;2023-03-16T16:07:49;1.15;;;0.70;;
41115;SDS011;26861;51.824;4.682;2023-03-16T16:10:16;1.70;;;0.65;;
41115;SDS011;26861;51.824;4.682;2023-03-16T16:12:42;1.25;;;0.60;;
41115;SDS011;26861;51.824;4.682;2023-03-16T16:15:19;1.25;;;0.52;;
41115;SDS011;26861;51.824;4.682;2023-03-16T16:17:50;1.23;;;0.80;;
41115;SDS011;26861;51.824;4.682;2023-03-16T16:20:21;1.23;;;0.77;;
41115;SDS011;26861;51.824;4.682;2023-03-16T16:22:51;1.65;;;0.60;;
41115;SDS011;26861;51.824;4.682;2023-03-16T16:25:21;0.60;;;0.47;;
41115;SDS011;26861;51.824;4.682;2023-03-16T16:27:49;2.38;;;0.50;;
41115;SDS011;26861;51.824;4.682;2023-03-16T16:30:25;1.42;;;0.70;;
41115;SDS011;26861;51.824;4.682;2023-03-16T16:32:53;0.95;;;0.52;;
41115;SDS011;26861;51.824;4.682;2023-03-16T16:35:21;1.58;;;0.30;;
41115;SDS011;26861;51.824;4.682;2023-03-16T16:37:48;0.70;;;0.40;;
41115;SDS011;26861;51.824;4.682;2023-03-16T16:40:18;3.42;;;0.77;;
41115;SDS011;26861;51.824;4.682;2023-03-16T16:42:47;0.77;;;0.50;;
41115;SDS011;26861;51.824;4.682;2023-03-16T16:45:16;1.23;;;0.50;;
41115;SDS011;26861;51.824;4.682;2023-03-16T16:47:47;1.85;;;0.68;;
41115;SDS011;26861;51.824;4.682;2023-03-16T16:50:18;0.80;;;0.40;;
41115;SDS011;26861;51.824;4.682;2023-03-16T16:52:49;0.70;;;0.40;;
41115;SDS011;26861;51.824;4.682;2023-03-16T16:55:17;0.65;;;0.50;;